Date,TemperatureHighF,TemperatureAvgF,TemperatureLowF,DewpointHighF,DewpointAvgF,DewpointLowF,HumidityHigh,HumidityAvg,HumidityLow,PressureMaxIn,PressureMinIn,WindSpeedMaxMPH,WindSpeedAvgMPH,GustSpeedMaxMPH,PrecipitationSumIn
2013-1-1,25,19,4,23,16,1,92,87,81,30.25,30.11,2,0,5,0.02
2013-1-2,22,11,1,13,6,-2,91,78,62,30.32,30.24,7,2,13,0.00
2013-1-3,31,22,15,28,18,10,90,84,73,30.36,30.22,11,5,18,0.00
2013-1-4,31,21,11,26,17,8,90,85,79,30.38,30.31,11,6,22,0.00
2013-1-5,34,28,19,31,24,17,93,87,80,30.34,30.10,8,3,14,0.00
2013-1-6,35,27,15,32,24,13,94,88,83,30.40,30.01,17,7,23,0.00
2013-1-7,35,24,14,28,21,12,94,87,75,30.45,30.22,10,4,18,0.00
2013-1-8,41,32,27,32,27,23,88,82,68,30.27,30.16,7,3,13,0.00
2013-1-9,48,39,30,39,33,25,85,79,67,30.53,30.13,12,6,19,0.00
2013-1-10,43,35,28,41,30,24,97,81,70,30.54,29.99,11,4,19,0.36
2013-1-11,55,51,42,53,48,41,97,91,83,30.00,29.75,11,6,19,0.51
2013-1-12,58,49,36,52,45,33,95,87,77,29.95,29.80,11,6,20,0.45
2013-1-13,35,28,16,33,26,11,96,93,84,30.29,29.83,14,6,20,0.60
2013-1-14,22,17,13,18,13,10,92,86,81,30.54,30.29,0,0,0,0.01
2013-1-15,28,21,14,23,18,12,93,86,75,30.49,30.19,0,0,0,0.00
2013-1-16,36,28,18,28,23,16,93,83,64,30.19,29.97,0,0,0,0.01
2013-1-17,34,29,18,29,23,15,93,79,58,30.46,30.10,0,0,0,0.01
2013-1-18,38,28,17,29,22,14,91,79,63,30.50,30.09,0,0,0,0.02
2013-1-19,50,40,35,38,33,29,85,75,63,30.09,29.84,12,3,20,0.01
2013-1-20,38,23,16,33,14,8,84,69,58,30.32,29.92,24,11,34,0.01
2013-1-21,18,13,6,12,5,-2,86,71,52,30.37,30.22,20,12,27,0.00
2013-1-22,15,8,2,2,0,-2,84,70,48,30.48,30.36,13,8,20,0.00
2013-1-23,23,17,9,16,8,2,85,67,53,30.43,30.17,12,3,17,0.00
2013-1-24,23,16,7,15,6,2,86,66,43,30.67,30.27,12,4,22,0.00
2013-1-25,29,23,18,22,16,8,88,75,56,30.44,30.06,12,4,17,0.00
2013-1-26,32,22,11,19,15,8,90,74,47,30.46,30.16,4,1,8,0.00
2013-1-27,37,28,22,34,24,17,96,82,72,30.45,30.03,8,3,15,0.04
2013-1-28,51,47,36,50,46,35,98,96,94,30.04,29.91,10,5,21,0.07
2013-1-29,60,56,50,57,55,49,98,95,89,29.91,29.38,12,8,22,0.64
2013-1-30,52,42,23,51,40,20,98,95,87,29.65,29.25,24,10,33,0.97
2013-1-31,23,17,8,20,12,3,90,81,75,30.20,29.65,21,11,31,0.01
2013-2-1,20,10,2,13,5,-2,85,77,67,30.47,30.20,12,4,19,0.00
2013-2-2,27,21,12,24,18,8,92,87,74,30.30,30.04,11,6,16,0.00
2013-2-3,24,18,7,20,14,4,93,86,78,30.14,30.03,14,5,23,0.00
2013-2-4,37,28,22,31,23,18,89,82,76,30.13,29.84,7,3,12,0.02
2013-2-5,34,28,22,31,26,20,95,91,84,30.09,29.85,15,4,20,0.01
2013-2-6,39,32,28,29,26,22,88,77,63,30.30,30.09,9,2,17,0.00
2013-2-7,52,38,31,40,33,28,96,85,62,30.19,29.85,12,4,19,0.18
2013-2-8,33,30,26,32,28,23,96,91,87,30.41,29.89,14,8,23,0.18
2013-2-9,40,32,25,30,26,23,94,80,66,30.43,30.16,6,2,14,0.00
2013-2-10,50,40,33,48,37,26,95,88,75,30.16,29.63,13,6,21,0.25
2013-2-11,49,36,29,47,30,26,93,81,73,30.07,29.63,18,12,28,0.01
2013-2-12,31,29,25,27,25,23,94,86,82,30.16,29.98,13,5,19,0.01
2013-2-13,46,33,23,35,28,22,96,85,64,29.99,29.78,7,2,13,0.00
2013-2-14,40,36,31,35,32,28,92,85,77,30.02,29.76,18,7,24,0.00
2013-2-15,33,30,24,30,25,16,95,83,52,30.22,30.01,11,4,15,0.01
2013-2-16,24,20,16,18,13,7,84,72,55,30.23,30.16,13,7,21,0.01
2013-2-17,32,20,7,18,10,3,88,66,40,30.29,30.14,4,1,9,0.00
2013-2-18,52,40,27,45,32,18,94,76,65,30.14,29.52,21,8,36,0.30
2013-2-19,33,21,17,31,17,11,96,85,78,30.21,29.59,25,18,34,0.30
2013-2-20,25,16,8,19,12,4,86,80,74,30.40,30.21,16,2,26,0.00
2013-2-21,28,24,17,24,20,13,94,84,78,30.41,30.01,10,1,22,0.00
2013-2-22,34,30,25,33,28,23,97,93,84,30.02,29.87,12,6,23,0.12
2013-2-23,28,26,20,24,22,17,90,85,77,30.03,29.98,9,6,15,0.01
2013-2-24,37,26,16,29,22,14,92,83,69,30.19,30.03,5,1,9,0.02
2013-2-25,41,33,26,32,28,23,88,79,66,30.20,29.94,7,3,14,0.01
2013-2-26,34,33,32,32,30,28,97,91,79,29.95,29.45,10,4,25,0.82
2013-2-27,33,32,31,32,31,29,98,97,94,29.72,29.51,11,7,19,0.08
2013-2-28,35,32,31,33,30,28,96,93,88,30.06,29.72,10,7,17,0.05
2013-3-1,33,30,27,30,27,23,95,89,83,30.17,30.03,8,5,13,0.01
2013-3-2,29,27,25,26,24,20,92,88,82,30.20,30.14,9,4,15,0.01
2013-3-3,34,24,13,24,19,11,92,81,59,30.19,30.12,7,2,13,0.01
2013-3-4,35,29,22,30,24,18,91,81,65,30.17,30.01,6,3,13,0.01
2013-3-5,34,32,27,32,30,26,96,93,82,30.02,29.75,6,2,14,0.07
2013-3-6,30,29,28,28,27,26,96,92,89,30.34,29.90,13,4,17,0.11
2013-3-7,35,29,24,30,26,22,94,87,69,30.45,30.33,7,2,9,0.17
2013-3-8,39,30,19,30,25,17,95,81,63,30.53,30.38,5,2,11,0.01
2013-3-9,45,38,31,37,32,26,84,80,70,30.38,29.92,8,4,17,0.01
2013-3-10,61,52,44,50,43,35,90,72,61,29.92,29.69,10,5,19,0.02
2013-3-11,51,41,32,50,39,30,96,93,91,29.86,29.62,13,7,21,0.10
2013-3-12,38,32,29,32,28,25,92,84,68,30.06,29.86,17,11,25,0.01
2013-3-13,34,28,24,27,22,19,92,78,58,30.38,30.06,16,11,24,0.00
2013-3-14,38,29,20,31,24,18,95,85,57,30.39,30.18,7,2,14,0.01
2013-3-15,50,38,29,43,35,27,94,87,76,30.18,29.75,6,2,14,0.01
2013-3-16,45,37,31,40,34,26,97,89,81,30.12,29.64,9,4,18,0.00
2013-3-17,38,32,30,29,26,24,87,79,68,30.20,29.99,9,4,18,0.00
2013-3-18,37,33,27,36,30,22,97,91,81,30.01,29.65,20,8,30,0.03
2013-3-19,38,28,20,22,18,14,82,68,46,30.16,29.88,24,5,33,0.01
2013-3-20,29,24,19,22,15,10,87,69,47,30.15,30.07,16,1,23,0.00
2013-3-21,35,23,11,18,13,7,87,66,39,30.11,30.04,13,2,18,0.00
2013-3-22,43,29,15,21,17,12,93,65,35,30.11,30.04,7,1,12,0.00
2013-3-23,47,36,28,27,23,20,80,62,40,30.14,29.99,5,2,11,0.00
2013-3-24,33,30,28,30,27,24,97,88,80,30.00,29.57,11,6,22,0.03
2013-3-25,37,31,27,32,29,26,97,92,78,30.09,29.63,11,8,18,0.30
2013-3-26,36,32,29,30,28,25,89,84,73,30.29,30.09,11,7,16,0.01
2013-3-27,39,32,20,31,26,18,95,81,59,30.38,30.29,7,3,11,0.00
2013-3-28,46,34,23,31,26,21,93,75,49,30.41,30.33,5,1,9,0.00
2013-3-29,54,42,32,36,32,27,87,70,48,30.35,30.25,5,1,9,0.00
2013-3-30,55,44,32,40,34,27,85,68,49,30.27,29.93,6,2,12,0.00
2013-3-31,61,50,40,45,40,-100,96,74,47,29.93,29.75,16,8,24,0.00
2013-4-1,43,36,26,31,23,16,79,60,34,30.21,29.88,13,8,28,0.00
2013-4-2,45,33,19,23,18,13,90,58,27,30.34,30.20,14,5,24,0.00
2013-4-3,48,35,23,23,19,15,81,54,35,30.48,30.32,6,1,13,0.00
2013-4-4,58,43,29,26,23,20,75,48,24,30.37,30.02,7,2,12,0.00
2013-4-5,56,43,33,37,27,17,88,57,22,30.19,30.01,6,3,13,0.00
2013-4-6,69,52,34,42,34,25,74,52,33,30.16,29.72,14,6,26,0.00
2013-4-7,69,58,44,47,42,38,94,60,32,29.94,29.70,12,6,20,0.04
2013-4-8,75,62,51,60,52,38,93,72,48,29.93,29.73,13,5,26,0.28
2013-4-9,77,64,54,62,57,50,94,79,54,29.96,29.82,13,4,24,0.17
2013-4-10,66,52,43,62,49,42,97,90,75,29.88,29.70,9,3,16,0.83
2013-4-11,61,51,44,60,50,41,98,96,90,29.79,29.59,13,5,23,1.03
2013-4-12,43,39,36,41,36,32,91,87,78,29.92,29.63,17,8,26,0.12
2013-4-13,48,41,36,38,34,30,91,78,59,30.02,29.92,16,8,23,0.00
2013-4-14,73,54,42,52,43,37,84,68,38,30.03,29.74,7,3,16,0.00
2013-4-15,63,58,52,58,52,46,95,81,61,29.91,29.76,11,5,22,0.00
2013-4-16,52,48,44,51,44,39,96,89,77,30.23,29.90,8,3,17,0.89
2013-4-17,66,51,43,63,47,39,97,86,77,30.24,29.84,14,5,23,0.23
2013-4-18,70,60,45,65,58,42,97,93,84,29.84,29.54,16,6,30,1.26
2013-4-19,44,38,35,43,34,31,95,85,78,29.97,29.55,17,12,28,0.63
2013-4-20,46,37,30,32,29,26,93,74,50,30.45,29.97,12,2,18,0.01
2013-4-21,53,42,32,34,29,23,77,60,45,30.55,30.38,7,4,15,0.00
2013-4-22,66,52,39,40,35,30,74,55,32,30.38,30.09,6,2,13,0.00
2013-4-23,63,54,39,55,47,38,96,79,64,30.09,29.81,10,3,21,0.55
2013-4-24,49,40,35,40,36,33,95,85,60,30.22,29.87,12,6,18,0.67
2013-4-25,51,44,37,38,33,28,86,67,45,30.37,30.17,19,7,29,0.01
2013-4-26,64,50,37,47,38,31,80,66,48,30.43,30.32,6,2,13,0.00
2013-4-27,66,54,44,52,44,38,92,71,39,30.34,30.01,6,2,14,0.13
2013-4-28,60,55,53,56,53,51,97,93,85,30.01,29.84,4,1,8,0.23
2013-4-29,71,60,51,58,54,49,96,81,57,29.97,29.84,7,2,14,0.01
2013-4-30,81,67,55,63,57,51,88,71,44,29.97,29.86,7,4,15,0.00
2013-5-1,82,71,59,60,56,53,83,63,40,30.12,29.96,5,1,11,0.00
2013-5-2,81,66,47,62,55,42,85,67,42,30.14,30.03,6,2,14,0.00
2013-5-3,72,56,43,63,51,40,95,84,63,30.08,29.89,6,3,16,0.13
2013-5-4,69,62,54,57,52,46,90,71,53,30.00,29.91,6,2,16,0.02
2013-5-5,66,58,50,54,51,48,96,78,53,30.02,29.93,8,2,16,0.00
2013-5-6,73,62,54,54,51,48,86,67,50,29.99,29.92,8,3,14,0.00
2013-5-7,77,63,49,56,50,42,83,63,41,30.02,29.95,4,1,11,0.00
2013-5-8,79,67,53,58,52,47,85,60,38,30.02,29.94,5,0,9,0.00
2013-5-9,73,63,57,60,56,48,95,77,51,29.99,29.82,8,1,18,0.59
2013-5-10,64,55,44,61,51,-100,96,92,85,29.96,29.79,9,4,15,0.53
2013-5-11,64,50,42,54,42,30,96,76,34,30.06,29.88,17,7,28,0.01
2013-5-12,57,45,32,34,29,-100,90,60,33,30.15,30.05,14,6,23,0.01
2013-5-13,66,51,35,38,30,24,81,50,21,30.22,30.08,12,3,16,0.00
2013-5-14,86,68,51,62,50,37,69,54,40,30.09,29.74,11,4,24,0.00
2013-5-15,83,74,68,64,56,51,80,55,34,29.83,29.73,16,7,24,0.01
2013-5-16,82,67,57,59,33,-100,82,53,24,29.94,29.79,3,0,8,0.01
2013-5-17,81,69,62,65,56,-100,91,76,48,30.01,29.93,6,1,14,0.07
2013-5-18,77,68,59,65,62,58,97,81,59,30.05,29.95,3,1,8,0.07
2013-5-19,87,75,63,68,64,60,93,71,45,29.96,29.78,5,1,13,0.00
2013-5-20,86,77,71,70,66,59,87,70,50,29.85,29.74,9,3,20,0.00
2013-5-21,83,74,62,68,64,59,92,73,50,29.78,29.68,15,4,35,0.02
2013-5-22,74,68,61,65,61,56,92,79,55,29.76,29.63,12,4,18,0.11
2013-5-23,61,53,41,58,49,35,95,88,73,30.24,29.76,10,5,18,0.04
2013-5-24,64,50,36,44,38,34,94,66,34,30.42,30.23,6,2,12,0.01
2013-5-25,60,51,42,47,37,29,83,60,31,30.40,30.24,4,1,10,0.01
2013-5-26,64,56,45,55,48,41,93,75,54,30.33,30.14,5,1,13,0.27
2013-5-27,75,62,56,68,59,54,96,90,73,30.16,29.85,12,3,20,2.13
2013-5-28,79,71,63,70,65,61,96,84,71,29.91,29.80,7,3,17,0.50
2013-5-29,85,75,66,70,65,59,89,72,53,29.96,29.86,7,2,15,0.01
2013-5-30,83,74,68,71,66,60,86,77,59,29.97,29.85,8,3,18,0.23
2013-5-31,76,70,64,70,66,62,95,89,80,29.93,29.78,8,2,18,0.24
2013-6-1,74,67,60,69,63,58,96,88,75,29.85,29.68,13,3,22,0.96
2013-6-2,65,59,52,61,56,47,95,89,82,30.04,29.75,7,3,13,0.14
2013-6-3,67,56,43,49,46,41,95,70,45,30.12,30.03,5,1,14,0.00
2013-6-4,73,63,50,50,48,45,88,59,38,30.15,30.06,7,2,11,0.00
2013-6-5,79,68,58,57,52,48,72,58,43,30.08,29.87,6,2,10,0.00
2013-6-6,78,68,59,60,53,46,76,61,48,29.89,29.80,5,3,13,0.00
2013-6-7,75,64,55,59,54,47,91,72,47,29.91,29.84,5,2,9,0.00
2013-6-8,78,65,48,56,50,44,87,62,37,29.99,29.90,3,0,10,0.00
2013-6-9,81,72,63,63,59,54,88,65,43,30.00,29.81,4,1,12,0.00
2013-6-10,80,70,63,65,63,58,96,80,50,29.85,29.74,8,2,12,0.49
2013-6-11,86,73,60,69,63,57,92,73,45,29.95,29.82,5,1,9,0.04
2013-6-12,91,80,69,74,70,65,92,73,47,29.89,29.55,6,2,16,0.01
2013-6-13,74,68,60,70,60,55,96,78,52,30.02,29.59,7,3,20,0.60
2013-6-14,80,66,53,62,56,51,94,73,47,30.10,29.98,3,1,9,0.01
2013-6-15,79,71,62,66,62,58,90,74,56,30.07,29.89,6,1,13,0.00
2013-6-16,80,73,67,70,66,62,89,78,67,29.96,29.87,16,4,23,0.00
2013-6-17,86,76,65,71,65,57,97,72,37,29.94,29.85,5,1,9,0.00
2013-6-18,81,71,61,65,61,55,92,72,49,30.00,29.85,6,2,13,0.00
2013-6-19,81,69,59,61,58,55,91,69,46,30.11,30.00,5,2,10,0.00
2013-6-20,87,74,66,67,61,57,78,65,45,30.15,30.09,3,1,10,0.00
2013-6-22,81,75,71,73,67,64,86,78,70,30.11,29.98,9,2,18,0.34
2013-6-23,83,73,65,72,67,63,95,81,61,30.08,29.97,6,2,14,0.01
2013-6-24,85,73,66,75,68,64,95,84,70,30.10,29.90,6,1,15,0.21
2013-6-25,88,76,67,77,70,65,94,83,67,29.98,29.80,10,2,20,0.36
2013-6-26,81,74,67,73,69,65,94,86,69,29.87,29.70,6,2,14,0.20
2013-6-27,87,77,67,75,70,66,98,82,55,29.78,29.68,10,4,17,0.01
2013-6-28,82,72,63,67,63,57,94,75,46,29.71,29.59,13,5,20,0.02
2013-6-29,73,65,60,67,63,59,98,92,77,29.70,29.57,5,1,14,0.33
2013-6-30,75,67,63,64,62,59,97,85,62,29.91,29.70,9,2,19,0.11
2013-7-1,76,67,61,63,59,53,91,75,61,29.99,29.91,9,3,19,0.01
2013-7-2,66,63,59,62,58,53,94,86,64,30.03,29.97,5,2,12,0.08
2013-7-3,73,66,61,67,63,60,97,90,75,30.09,30.00,5,1,10,0.05
2013-7-4,79,69,59,65,62,57,93,78,58,30.13,30.05,4,0,7,0.02
2013-7-5,82,72,61,69,65,59,97,81,58,30.11,30.02,2,0,8,0.00
2013-7-6,75,72,68,71,68,66,94,88,82,30.07,29.99,2,0,6,0.00
2013-7-7,85,74,66,73,68,65,97,83,63,30.06,29.97,3,1,10,0.00
2013-7-8,85,76,71,74,69,-100,90,82,65,30.06,29.97,4,1,12,0.00
2013-7-9,87,80,75,78,74,71,88,83,67,30.00,29.89,5,1,12,0.01
2013-7-10,84,76,68,76,69,-100,93,83,65,29.97,29.82,12,3,23,0.20
2013-7-11,79,69,56,63,58,54,96,71,46,30.07,29.97,4,1,13,0.20
2013-7-12,81,69,54,63,57,51,95,69,44,30.13,30.06,4,1,10,0.00
2013-7-13,83,72,58,67,62,55,93,71,53,30.14,30.07,8,2,15,0.00
2013-7-14,88,78,66,72,68,63,91,73,55,30.17,30.11,6,1,11,0.00
2013-7-15,89,81,73,74,72,70,91,75,58,30.25,30.16,3,1,11,0.00
2013-7-16,91,81,70,75,71,68,95,75,51,30.31,30.24,4,0,9,0.00
2013-7-17,93,80,68,76,71,65,95,76,50,30.32,30.17,4,1,8,0.00
2013-7-18,77,74,73,73,70,69,91,89,87,30.19,30.15,0,0,0,0.00
2013-7-29,75,69,61,60,57,55,83,68,52,30.15,30.12,3,0,6,0.00
2013-7-30,70,64,56,65,60,53,93,85,72,30.19,30.06,4,1,9,0.11
2013-7-31,75,68,63,70,66,62,98,93,81,30.07,29.94,6,1,13,0.10
2013-8-1,80,68,58,66,59,54,98,76,46,29.99,29.94,11,4,20,0.01
2013-8-2,82,70,58,71,63,54,91,79,63,29.98,29.87,8,2,16,0.01
2013-8-3,81,71,63,70,64,55,97,79,52,30.09,29.91,5,1,13,0.43
2013-8-4,78,66,54,61,56,50,94,72,46,30.18,30.09,3,1,8,0.01
2013-8-5,77,67,59,65,60,54,90,78,55,30.12,29.90,3,0,8,0.06
2013-8-6,81,71,66,71,67,63,94,87,70,29.93,29.86,2,0,7,0.04
2013-8-7,82,74,68,75,71,67,96,90,80,29.89,29.82,3,1,8,0.00
2013-8-8,78,72,66,70,67,59,96,85,74,29.96,29.89,4,1,10,0.00
2013-8-9,82,71,60,66,62,58,96,75,47,30.02,29.95,3,0,7,0.00
2013-8-10,83,73,64,69,64,61,95,76,50,30.09,30.02,6,1,11,0.00
2013-8-11,83,70,57,67,61,54,93,75,45,30.12,30.05,4,1,8,0.00
2013-8-12,83,72,61,69,64,58,94,78,54,30.07,29.86,6,1,11,0.02
2013-8-13,72,65,53,67,56,-100,97,78,47,30.12,29.88,6,2,14,0.02
2013-8-14,73,59,46,54,47,-100,95,72,47,30.23,30.12,3,1,9,0.01
2013-8-15,75,56,48,57,39,-100,95,69,43,30.20,30.11,4,0,10,0.00
2013-8-16,76,65,57,58,51,-100,92,68,40,30.17,30.12,5,1,10,0.00
2013-8-17,78,68,57,59,56,53,90,68,45,30.22,30.15,6,2,11,0.00
2013-8-18,83,70,57,65,58,-100,90,70,49,30.18,30.09,4,1,10,0.00
2013-8-19,85,69,60,66,52,-100,96,73,45,30.12,30.03,5,1,8,0.00
2013-8-20,86,74,64,68,63,-100,92,72,51,30.14,30.05,3,0,8,0.00
2013-8-21,88,76,66,70,66,63,96,74,44,30.11,30.00,5,1,10,0.00
2013-8-22,74,71,67,69,67,65,94,89,80,30.12,30.00,7,1,12,0.08
2013-8-23,83,70,61,68,64,60,98,82,52,30.15,30.07,5,1,11,0.01
2013-8-24,84,73,62,61,57,55,85,61,38,30.26,30.14,4,1,10,0.00
2013-8-25,89,75,62,65,58,-100,80,60,38,30.27,30.18,4,1,10,0.00
2013-8-26,89,77,66,72,66,59,91,69,48,30.20,30.03,7,2,13,0.00
2013-8-27,91,78,71,74,71,68,91,79,53,30.04,29.93,8,2,13,0.00
2013-8-28,91,82,71,77,72,68,93,74,60,29.98,29.90,8,3,12,0.00
2013-8-29,90,77,70,72,68,66,95,79,48,30.05,29.97,4,1,9,0.00
2013-8-30,94,79,68,77,69,64,92,74,49,29.97,29.77,10,1,16,0.00
2013-8-31,86,74,64,73,68,62,95,81,58,29.82,29.71,11,2,16,0.10
2013-9-1,80,72,66,71,67,-100,97,88,72,29.79,29.74,6,1,10,0.07
2013-9-2,83,72,62,70,64,58,97,79,46,29.95,29.74,7,2,13,0.01
2013-9-3,78,63,48,59,54,46,98,76,46,30.08,29.95,6,1,10,0.01
2013-9-4,83,67,50,60,55,48,96,70,37,30.16,30.05,7,2,12,0.00
2013-9-5,83,68,56,65,59,52,91,74,51,30.20,30.11,4,1,9,0.00
2013-9-6,85,71,59,65,57,49,81,63,48,30.21,30.04,3,1,9,0.00
2013-9-7,88,76,65,68,63,59,93,69,40,30.05,29.90,6,2,13,0.04
2013-9-8,89,76,66,69,65,-100,94,73,48,29.96,29.90,6,1,12,0.04
2013-9-9,94,79,66,74,69,64,96,74,49,29.95,29.84,5,2,12,0.00
2013-9-10,96,84,71,72,68,62,92,64,34,30.04,29.91,9,2,15,0.00
2013-9-11,95,80,71,70,67,58,92,68,29,30.07,29.96,13,3,18,0.00
2013-9-12,85,71,60,69,64,51,97,83,37,30.02,29.88,15,4,22,0.34
2013-9-13,67,60,53,56,51,45,93,74,45,30.14,30.01,6,2,12,0.07
2013-9-14,72,59,44,46,43,38,94,59,30,30.21,30.08,5,1,10,0.00
2013-9-15,72,56,51,60,49,-100,95,79,43,30.10,29.99,4,0,11,0.14
2013-9-16,68,60,53,58,54,49,96,82,57,30.31,30.09,5,2,12,0.10
2013-9-17,73,60,50,54,51,47,93,74,51,30.33,30.14,5,2,11,0.00
2013-9-18,71,60,59,56,55,53,89,84,72,30.14,29.98,2,0,9,0.02
2013-9-19,86,74,64,73,68,63,97,82,62,30.02,29.84,5,2,17,0.48
2013-9-20,76,69,60,70,66,53,95,89,77,29.87,29.78,10,3,20,0.19
2013-9-21,70,59,50,54,50,45,96,73,43,29.93,29.80,11,4,17,0.03
2013-9-22,70,55,42,51,45,-100,98,74,45,30.04,29.93,5,1,10,0.00
2013-9-23,72,56,44,49,46,41,92,72,41,30.11,30.03,3,1,9,0.00
2013-9-24,75,61,48,52,49,45,89,67,44,30.06,29.91,4,2,10,0.00
2013-9-25,75,64,51,58,52,47,89,66,49,29.94,29.89,3,2,9,0.00
2013-9-26,79,65,52,56,51,47,91,64,33,30.06,29.94,3,1,8,0.00
2013-9-27,81,66,52,57,50,47,86,59,32,30.16,30.06,3,1,9,0.00
2013-9-28,82,70,54,60,54,46,87,59,41,30.11,29.96,4,2,11,0.00
2013-9-29,72,64,54,61,53,-100,93,71,50,30.01,29.95,4,2,12,0.09
2013-9-30,75,59,49,58,53,47,97,82,51,30.01,29.91,3,0,19,0.08
2013-10-1,73,69,60,65,63,57,90,82,70,29.99,29.95,3,1,7,0.00
2013-10-2,79,68,63,68,65,62,98,90,69,30.08,29.99,3,0,10,0.01
2013-10-3,83,70,65,71,66,62,97,88,61,30.01,29.87,9,2,15,0.48
2013-10-4,85,73,65,70,66,61,92,81,59,29.99,29.93,4,2,10,0.21
2013-10-5,79,70,66,71,67,64,97,92,76,29.96,29.82,9,2,18,0.24
2013-10-6,66,57,46,65,50,39,96,79,45,29.82,29.70,14,5,22,0.12
2013-10-7,67,53,43,50,44,41,94,75,44,30.12,29.81,13,5,18,0.01
2013-10-8,75,60,47,52,47,45,92,68,38,30.24,30.12,3,1,8,0.00
2013-10-9,73,59,46,49,46,42,87,63,37,30.25,30.14,6,1,11,0.00
2013-10-10,77,61,47,56,51,44,94,71,44,30.19,30.06,5,0,7,0.00
2013-10-11,78,64,49,54,50,46,90,65,37,30.10,29.98,3,0,9,0.00
2013-10-12,77,64,55,62,55,49,87,73,55,30.14,30.00,5,2,14,0.00
2013-10-13,68,55,40,51,39,-100,93,61,26,30.38,30.14,7,2,14,0.00
2013-10-14,68,54,42,46,41,38,90,64,34,30.40,30.18,6,1,14,0.00
2013-10-15,64,58,50,62,53,43,96,85,70,30.18,29.85,4,2,12,0.06
2013-10-16,61,50,42,58,45,40,93,84,74,29.98,29.89,0,0,0,0.04
2013-10-17,54,48,44,47,44,39,95,87,68,29.98,29.88,0,0,0,0.10
2013-10-18,54,46,40,47,41,38,93,83,74,30.01,29.91,0,0,0,0.02
2013-10-19,54,46,40,44,38,34,95,77,48,29.99,29.86,0,0,0,0.17
2013-10-20,66,52,39,45,39,-100,87,65,43,29.95,29.82,0,0,0,0.04
2013-10-21,56,48,32,46,39,26,88,72,54,30.03,29.86,0,0,1,0.00
2013-10-22,47,35,26,38,30,23,95,82,52,30.05,29.92,5,1,11,0.28
2013-10-23,44,37,31,36,32,30,96,84,64,30.08,29.91,10,5,19,0.35
2013-10-24,43,38,33,34,30,24,93,75,48,30.34,30.07,10,5,18,0.01
2013-10-25,50,41,25,32,28,22,90,62,44,30.48,30.23,8,4,16,0.00
2013-10-26,57,44,34,40,32,27,84,63,43,30.23,29.91,16,6,27,0.00
2013-10-27,56,40,29,36,28,-100,89,67,37,30.13,30.04,8,1,13,0.00
2013-10-28,60,45,34,39,31,-100,90,63,35,30.34,30.09,3,0,6,0.00
2013-10-29,57,46,38,47,41,35,94,82,62,30.36,30.19,4,1,11,0.03
2013-10-30,64,55,49,63,54,46,97,96,88,30.19,29.87,4,1,12,0.05
2013-10-31,64,60,49,62,58,48,97,95,92,29.87,29.28,6,1,16,1.20
2013-11-1,50,47,43,48,44,41,95,90,78,29.78,29.42,0,0,0,0.28
2013-11-2,48,43,35,44,40,34,98,89,70,30.16,29.78,12,4,17,0.05
2013-11-3,53,40,29,42,34,-100,98,82,52,30.35,30.16,4,1,10,0.01
2013-11-4,57,48,41,44,40,35,83,74,57,30.32,30.20,6,3,15,0.01
2013-11-5,56,52,50,49,46,43,92,80,71,30.33,30.06,6,3,16,0.00
2013-11-6,59,50,35,52,46,33,95,88,67,30.16,29.87,14,8,22,0.19
2013-11-7,46,35,27,37,31,25,95,84,61,30.32,30.15,13,5,21,0.01
2013-11-8,51,38,26,35,30,24,95,76,47,30.39,30.11,7,2,14,0.01
2013-11-9,61,48,40,44,36,-100,84,64,46,30.12,29.96,17,8,24,0.01
2013-11-10,48,39,29,36,32,27,93,76,54,30.37,30.12,10,4,17,0.00
2013-11-11,50,40,29,41,34,25,95,81,66,30.43,30.12,9,5,17,0.02
2013-11-12,32,26,19,28,22,16,92,85,75,30.71,30.43,8,4,12,0.02
2013-11-13,38,26,16,26,20,13,91,77,58,30.69,30.32,8,4,16,0.01
2013-11-14,51,39,29,28,25,21,76,58,38,30.32,30.06,9,6,20,0.01
2013-11-15,52,45,38,38,31,26,81,59,47,30.08,30.00,7,4,15,0.00
2013-11-16,60,51,40,57,46,-100,94,87,77,30.02,29.67,12,5,24,0.05
2013-11-17,66,57,43,63,54,39,96,89,76,29.77,29.26,27,11,43,0.27
2013-11-18,46,39,26,39,34,24,92,81,57,30.26,29.77,20,10,29,0.01
2013-11-19,42,33,24,32,28,22,93,82,67,30.40,30.26,4,2,11,0.00
2013-11-20,45,37,29,37,30,25,86,79,65,30.34,30.13,8,3,16,0.02
2013-11-21,47,46,42,46,42,37,97,89,75,30.23,30.16,5,2,11,0.51
2013-11-22,47,39,27,46,37,25,98,92,84,30.49,30.19,9,4,16,0.04
2013-11-23,27,23,16,26,16,-100,95,78,58,30.71,30.46,9,2,15,0.01
2013-11-24,26,18,10,12,8,5,86,67,41,30.79,30.52,3,0,7,0.00
2013-11-25,32,26,18,26,18,10,91,71,64,30.53,30.19,8,5,16,0.00
2013-11-26,36,30,24,30,26,20,91,83,77,30.20,30.03,12,4,21,0.00
2013-11-27,27,18,14,20,11,8,85,76,56,30.34,30.12,12,4,21,0.00
2013-11-28,37,26,17,21,17,13,87,70,49,30.51,30.26,9,4,20,0.00
2013-11-29,36,25,13,23,18,10,92,75,56,30.68,30.50,4,1,9,0.00
2013-11-30,51,37,28,32,26,-100,82,66,44,30.50,30.13,8,4,16,0.00
2013-12-1,47,36,28,36,30,25,95,80,60,30.13,30.01,4,1,8,0.00
2013-12-2,42,36,33,36,33,29,94,87,76,30.01,29.78,6,2,14,0.03
2013-12-3,50,44,38,48,43,36,97,95,92,29.79,29.73,5,2,10,0.03
2013-12-4,59,51,43,57,50,42,98,96,86,29.78,29.57,9,3,20,0.04
2013-12-5,52,30,23,49,26,17,95,85,76,30.28,29.69,16,10,23,0.03
2013-12-6,23,20,14,17,15,9,85,78,74,30.55,30.26,9,5,14,0.00
2013-12-7,24,15,8,11,7,-100,86,73,47,30.73,30.55,6,3,11,0.00
2013-12-8,27,22,15,26,18,11,95,86,76,30.62,30.02,7,3,16,0.00
2013-12-9,27,21,12,26,17,5,95,85,70,30.29,30.02,14,8,20,0.00
2013-12-10,26,13,1,16,7,-3,86,78,64,30.39,30.17,16,4,26,0.00
2013-12-11,24,16,1,19,11,-2,87,80,70,30.64,30.35,14,4,19,0.00
2013-12-12,24,11,-2,14,5,-6,85,74,61,30.64,30.34,8,4,16,0.00
2013-12-13,35,25,16,28,19,10,95,77,64,30.34,30.13,5,2,11,0.00
2013-12-14,32,29,26,31,27,-100,97,94,91,30.15,29.85,11,1,15,0.03
2013-12-15,26,16,10,24,13,7,92,88,84,30.19,30.00,13,2,19,0.01
2013-12-16,22,17,13,21,15,10,95,90,85,30.19,30.07,0,0,0,0.00
2013-12-17,27,20,14,26,19,11,96,93,87,30.19,30.06,0,0,0,0.00
2013-12-18,37,22,6,29,16,3,90,79,64,30.27,29.96,12,4,24,0.01
2013-12-19,42,39,37,40,35,29,94,85,73,29.98,29.84,11,6,22,0.03
2013-12-20,54,45,35,53,44,33,98,96,93,29.84,29.70,14,5,23,0.16
2013-12-21,35,33,32,34,32,-100,98,97,97,29.85,29.52,9,3,17,0.94
2013-12-22,35,32,28,34,31,25,97,95,91,30.14,29.51,14,8,20,0.54
2013-12-23,28,20,7,26,17,2,93,88,80,30.53,30.13,13,10,20,0.01
2013-12-24,18,10,2,13,5,-2,85,82,74,30.66,30.49,4,0,9,0.00
2013-12-25,29,24,18,28,19,13,95,81,74,30.50,30.19,14,4,20,0.00
2013-12-26,35,28,14,28,23,11,95,84,73,30.39,30.19,14,6,23,0.01
2013-12-27,44,35,25,35,30,22,92,83,67,30.37,30.21,8,4,16,0.01
2013-12-28,51,39,34,39,32,-100,87,78,60,30.22,29.93,7,4,14,0.00
2013-12-29,38,32,22,32,28,18,95,87,78,30.16,29.82,13,6,21,0.00
2013-12-30,21,17,15,18,14,12,89,88,86,30.25,30.16,12,9,19,0.00
2014-1-2,17,14,7,13,11,3,91,87,77,30.43,30.08,9,5,14,0.00